sensor_id;sensor_type;location;lat;lon;timestamp;pressure;altitude;pressure_sealevel;temperature;humidity
41636;BME280;27623;51.966;4.602;2022-12-13T00:01:49;63231.91;;;0.41;86.53
41636;BME280;27623;51.966;4.602;2022-12-13T00:04:16;63219.53;;;0.36;86.52
41636;BME280;27623;51.966;4.602;2022-12-13T00:06:46;63213.25;;;0.32;86.89
41636;BME280;27623;51.966;4.602;2022-12-13T00:09:13;63205.50;;;0.23;87.27
41636;BME280;27623;51.966;4.602;2022-12-13T00:11:39;63201.22;;;0.26;87.29
41636;BME280;27623;51.966;4.602;2022-12-13T00:14:07;63195.56;;;0.04;87.21
41636;BME280;27623;51.966;4.602;2022-12-13T00:16:33;63199.56;;;0.17;87.69
41636;BME280;27623;51.966;4.602;2022-12-13T00:18:59;63182.19;;;0.13;87.27
41636;BME280;27623;51.966;4.602;2022-12-13T00:21:27;63197.94;;;0.16;87.48
41636;BME280;27623;51.966;4.602;2022-12-13T00:27:15;63108.34;;;-0.24;87.89
41636;BME280;27623;51.966;4.602;2022-12-13T00:29:40;63163.88;;;0.03;87.63
41636;BME280;27623;51.966;4.602;2022-12-13T00:32:06;63165.69;;;0.07;87.25
41636;BME280;27623;51.966;4.602;2022-12-13T00:34:31;63180.50;;;-0.03;88.01
41636;BME280;27623;51.966;4.602;2022-12-13T00:36:57;63200.06;;;0.11;87.08
41636;BME280;27623;51.966;4.602;2022-12-13T00:39:25;63143.16;;;0.07;86.24
41636;BME280;27623;51.966;4.602;2022-12-13T00:41:50;63158.97;;;0.17;85.85
41636;BME280;27623;51.966;4.602;2022-12-13T00:44:16;63198.84;;;0.14;85.84
41636;BME280;27623;51.966;4.602;2022-12-13T00:46:43;63188.63;;;0.12;86.59
41636;BME280;27623;51.966;4.602;2022-12-13T00:49:11;63192.00;;;0.10;87.06
41636;BME280;27623;51.966;4.602;2022-12-13T00:51:37;63195.88;;;-0.05;87.80
41636;BME280;27623;51.966;4.602;2022-12-13T00:54:02;63161.81;;;-0.18;87.62
41636;BME280;27623;51.966;4.602;2022-12-13T00:56:29;63160.03;;;-0.15;88.35
41636;BME280;27623;51.966;4.602;2022-12-13T00:58:56;63182.63;;;-0.08;88.18
41636;BME280;27623;51.966;4.602;2022-12-13T01:01:27;63171.97;;;0.10;87.47
41636;BME280;27623;51.966;4.602;2022-12-13T01:03:54;63188.44;;;0.09;87.18
41636;BME280;27623;51.966;4.602;2022-12-13T01:06:24;63185.03;;;0.11;86.80
41636;BME280;27623;51.966;4.602;2022-12-13T01:08:51;63176.91;;;-0.04;87.26
41636;BME280;27623;51.966;4.602;2022-12-13T01:11:17;63198.66;;;-0.14;87.30
41636;BME280;27623;51.966;4.602;2022-12-13T01:13:42;63136.78;;;-0.18;87.92
41636;BME280;27623;51.966;4.602;2022-12-13T01:16:09;63146.63;;;-0.21;88.31
41636;BME280;27623;51.966;4.602;2022-12-13T01:18:35;63146.22;;;-0.26;88.39
41636;BME280;27623;51.966;4.602;2022-12-13T01:21:07;63149.72;;;-0.39;88.41
41636;BME280;27623;51.966;4.602;2022-12-13T01:23:34;63123.06;;;-0.48;89.03
41636;BME280;27623;51.966;4.602;2022-12-13T01:26:04;63180.59;;;-0.22;88.07
41636;BME280;27623;51.966;4.602;2022-12-13T01:28:31;63182.22;;;-0.13;86.91
41636;BME280;27623;51.966;4.602;2022-12-13T01:30:59;63188.31;;;-0.12;85.67
41636;BME280;27623;51.966;4.602;2022-12-13T01:33:25;63169.56;;;-0.09;85.65
41636;BME280;27623;51.966;4.602;2022-12-13T01:35:51;63190.31;;;-0.06;85.51
41636;BME280;27623;51.966;4.602;2022-12-13T01:38:16;63143.94;;;-0.23;86.80
41636;BME280;27623;51.966;4.602;2022-12-13T01:40:48;63172.78;;;-0.39;86.41
41636;BME280;27623;51.966;4.602;2022-12-13T01:43:16;63168.03;;;-0.29;87.21
41636;BME280;27623;51.966;4.602;2022-12-13T01:45:42;63147.31;;;-0.25;85.34
41636;BME280;27623;51.966;4.602;2022-12-13T01:48:23;63153.75;;;-0.19;85.23
41636;BME280;27623;51.966;4.602;2022-12-13T01:50:52;63181.88;;;-0.11;85.13
41636;BME280;27623;51.966;4.602;2022-12-13T01:53:24;63183.25;;;-0.19;85.51
41636;BME280;27623;51.966;4.602;2022-12-13T01:55:59;63147.13;;;-0.27;86.57
41636;BME280;27623;51.966;4.602;2022-12-13T01:58:29;63135.78;;;-0.38;87.20
41636;BME280;27623;51.966;4.602;2022-12-13T02:00:56;63144.69;;;-0.46;87.50
41636;BME280;27623;51.966;4.602;2022-12-13T02:03:22;63073.53;;;-0.87;87.53
41636;BME280;27623;51.966;4.602;2022-12-13T02:06:02;63123.34;;;-0.64;89.37
41636;BME280;27623;51.966;4.602;2022-12-13T02:08:29;63095.09;;;-0.67;88.63
41636;BME280;27623;51.966;4.602;2022-12-13T02:10:56;63073.31;;;-0.64;89.17
41636;BME280;27623;51.966;4.602;2022-12-13T02:13:22;63145.88;;;-0.57;88.13
41636;BME280;27623;51.966;4.602;2022-12-13T02:16:11;63116.06;;;-0.54;89.17
41636;BME280;27623;51.966;4.602;2022-12-13T02:21:34;63121.19;;;-0.66;89.08
41636;BME280;27623;51.966;4.602;2022-12-13T02:27:03;63123.06;;;-0.48;87.32
41636;BME280;27623;51.966;4.602;2022-12-13T02:32:27;63098.47;;;-0.68;87.99
41636;BME280;27623;51.966;4.602;2022-12-13T02:38:02;63112.66;;;-0.53;87.28
41636;BME280;27623;51.966;4.602;2022-12-13T02:40:53;63128.59;;;-0.47;86.96
41636;BME280;27623;51.966;4.602;2022-12-13T02:43:28;63093.34;;;-0.57;87.90
41636;BME280;27623;51.966;4.602;2022-12-13T02:46:00;63128.09;;;-0.41;87.43
41636;BME280;27623;51.966;4.602;2022-12-13T02:48:34;63130.97;;;-0.43;88.45
41636;BME280;27623;51.966;4.602;2022-12-13T02:51:03;63111.16;;;-0.33;87.44
41636;BME280;27623;51.966;4.602;2022-12-13T02:53:30;63152.81;;;-0.31;88.14
41636;BME280;27623;51.966;4.602;2022-12-13T02:55:56;63097.22;;;-0.32;87.69
41636;BME280;27623;51.966;4.602;2022-12-13T02:58:25;63133.28;;;-0.38;88.26
41636;BME280;27623;51.966;4.602;2022-12-13T03:06:08;63101.72;;;-0.58;87.73
41636;BME280;27623;51.966;4.602;2022-12-13T03:09:17;63107.47;;;-0.55;88.30
41636;BME280;27623;51.966;4.602;2022-12-13T03:18:08;63078.28;;;-0.71;88.95
41636;BME280;27623;51.966;4.602;2022-12-13T03:20:44;63142.81;;;-0.64;88.74
41636;BME280;27623;51.966;4.602;2022-12-13T03:23:10;63115.84;;;-0.64;87.73
41636;BME280;27623;51.966;4.602;2022-12-13T03:25:36;63142.97;;;-0.62;88.25
41636;BME280;27623;51.966;4.602;2022-12-13T03:28:04;63100.00;;;-0.48;86.16
41636;BME280;27623;51.966;4.602;2022-12-13T03:30:32;63111.28;;;-0.45;86.26
41636;BME280;27623;51.966;4.602;2022-12-13T03:32:58;63108.50;;;-0.61;87.25
41636;BME280;27623;51.966;4.602;2022-12-13T03:35:25;63143.19;;;-0.59;88.66
41636;BME280;27623;51.966;4.602;2022-12-13T03:37:50;63084.59;;;-0.53;87.19
41636;BME280;27623;51.966;4.602;2022-12-13T03:40:17;63165.94;;;-0.50;87.66
41636;BME280;27623;51.966;4.602;2022-12-13T03:42:44;63143.56;;;-0.54;88.17
41636;BME280;27623;51.966;4.602;2022-12-13T03:45:09;63103.19;;;-0.52;88.18
41636;BME280;27623;51.966;4.602;2022-12-13T03:47:35;63099.44;;;-0.56;88.27
41636;BME280;27623;51.966;4.602;2022-12-13T03:50:03;63103.88;;;-0.63;88.88
41636;BME280;27623;51.966;4.602;2022-12-13T03:52:28;63090.09;;;-0.60;89.20
41636;BME280;27623;51.966;4.602;2022-12-13T03:54:54;63087.03;;;-0.67;89.69
41636;BME280;27623;51.966;4.602;2022-12-13T03:57:19;63113.66;;;-0.66;89.66
41636;BME280;27623;51.966;4.602;2022-12-13T03:59:45;63108.88;;;-0.63;89.16
41636;BME280;27623;51.966;4.602;2022-12-13T04:02:11;63105.81;;;-0.64;88.47
41636;BME280;27623;51.966;4.602;2022-12-13T04:04:36;63106.72;;;-0.65;89.18
41636;BME280;27623;51.966;4.602;2022-12-13T04:07:02;63109.75;;;-0.65;89.06
41636;BME280;27623;51.966;4.602;2022-12-13T04:09:27;63099.50;;;-0.75;87.84
41636;BME280;27623;51.966;4.602;2022-12-13T04:11:53;63117.44;;;-0.62;87.53
41636;BME280;27623;51.966;4.602;2022-12-13T04:14:37;63089.53;;;-0.67;87.80
41636;BME280;27623;51.966;4.602;2022-12-13T04:17:03;63092.00;;;-0.75;88.09
41636;BME280;27623;51.966;4.602;2022-12-13T04:19:31;63102.00;;;-0.75;88.05
41636;BME280;27623;51.966;4.602;2022-12-13T04:21:59;63099.31;;;-0.77;87.88
41636;BME280;27623;51.966;4.602;2022-12-13T04:24:24;63069.78;;;-0.91;88.57
41636;BME280;27623;51.966;4.602;2022-12-13T04:26:52;63099.16;;;-0.73;88.59
41636;BME280;27623;51.966;4.602;2022-12-13T04:29:18;63099.09;;;-0.87;89.08
41636;BME280;27623;51.966;4.602;2022-12-13T04:31:47;63117.88;;;-0.76;88.49
41636;BME280;27623;51.966;4.602;2022-12-13T04:34:12;63085.88;;;-0.83;89.28
41636;BME280;27623;51.966;4.602;2022-12-13T04:36:38;63099.31;;;-0.77;88.54
41636;BME280;27623;51.966;4.602;2022-12-13T04:39:04;63098.22;;;-0.78;89.36
41636;BME280;27623;51.966;4.602;2022-12-13T04:41:35;63120.03;;;-0.74;89.34
41636;BME280;27623;51.966;4.602;2022-12-13T04:44:01;63116.41;;;-0.82;89.35
41636;BME280;27623;51.966;4.602;2022-12-13T04:46:27;63129.91;;;-0.70;89.58
41636;BME280;27623;51.966;4.602;2022-12-13T04:48:52;63123.81;;;-0.71;89.87
41636;BME280;27623;51.966;4.602;2022-12-13T04:51:18;63081.81;;;-0.77;89.66
41636;BME280;27623;51.966;4.602;2022-12-13T04:53:43;63100.94;;;-0.76;90.13
41636;BME280;27623;51.966;4.602;2022-12-13T04:56:10;63064.69;;;-1.05;91.50
41636;BME280;27623;51.966;4.602;2022-12-13T04:58:35;63071.03;;;-0.87;93.23
41636;BME280;27623;51.966;4.602;2022-12-13T05:01:06;63055.66;;;-0.92;92.85
41636;BME280;27623;51.966;4.602;2022-12-13T05:03:33;63101.97;;;-0.82;91.75
41636;BME280;27623;51.966;4.602;2022-12-13T05:05:58;63105.50;;;-0.88;90.88
41636;BME280;27623;51.966;4.602;2022-12-13T05:08:24;63096.97;;;-0.82;91.34
41636;BME280;27623;51.966;4.602;2022-12-13T05:10:49;63085.56;;;-0.74;89.64
41636;BME280;27623;51.966;4.602;2022-12-13T05:13:15;63060.19;;;-0.79;90.04
41636;BME280;27623;51.966;4.602;2022-12-13T05:15:41;63095.88;;;-0.83;90.06
41636;BME280;27623;51.966;4.602;2022-12-13T05:18:07;63066.38;;;-0.89;89.02
41636;BME280;27623;51.966;4.602;2022-12-13T05:20:36;63058.78;;;-1.04;89.99
41636;BME280;27623;51.966;4.602;2022-12-13T05:23:02;63042.03;;;-1.00;89.40
41636;BME280;27623;51.966;4.602;2022-12-13T05:25:28;63086.34;;;-0.96;90.07
41636;BME280;27623;51.966;4.602;2022-12-13T05:27:54;63096.00;;;-0.94;89.88
41636;BME280;27623;51.966;4.602;2022-12-13T05:30:20;63075.16;;;-0.86;89.91
41636;BME280;27623;51.966;4.602;2022-12-13T05:32:45;63089.28;;;-0.84;89.13
41636;BME280;27623;51.966;4.602;2022-12-13T05:35:12;63096.97;;;-0.82;89.41
41636;BME280;27623;51.966;4.602;2022-12-13T05:37:38;63088.03;;;-0.81;89.84
41636;BME280;27623;51.966;4.602;2022-12-13T05:40:04;63102.16;;;-0.79;88.47
41636;BME280;27623;51.966;4.602;2022-12-13T05:42:29;63133.59;;;-0.80;87.90
41636;BME280;27623;51.966;4.602;2022-12-13T05:44:56;63102.69;;;-0.79;87.54
41636;BME280;27623;51.966;4.602;2022-12-13T05:47:22;63087.81;;;-0.90;88.01
41636;BME280;27623;51.966;4.602;2022-12-13T05:49:47;63066.16;;;-0.99;88.43
41636;BME280;27623;51.966;4.602;2022-12-13T05:52:20;63039.53;;;-1.00;88.54
41636;BME280;27623;51.966;4.602;2022-12-13T05:54:46;63058.44;;;-1.09;89.41
41636;BME280;27623;51.966;4.602;2022-12-13T05:57:11;63072.75;;;-1.05;89.21
41636;BME280;27623;51.966;4.602;2022-12-13T05:59:37;63077.53;;;-1.07;89.51
41636;BME280;27623;51.966;4.602;2022-12-13T06:02:02;63084.97;;;-1.14;89.16
41636;BME280;27623;51.966;4.602;2022-12-13T06:04:28;63063.19;;;-1.18;88.99
41636;BME280;27623;51.966;4.602;2022-12-13T06:06:54;63061.47;;;-1.08;89.63
41636;BME280;27623;51.966;4.602;2022-12-13T06:09:20;63058.16;;;-0.92;90.15
41636;BME280;27623;51.966;4.602;2022-12-13T06:11:48;63057.84;;;-1.16;89.85
41636;BME280;27623;51.966;4.602;2022-12-13T06:14:14;63063.56;;;-1.13;89.95
41636;BME280;27623;51.966;4.602;2022-12-13T06:16:40;63034.84;;;-1.10;90.15
41636;BME280;27623;51.966;4.602;2022-12-13T06:19:06;63067.16;;;-1.12;91.31
41636;BME280;27623;51.966;4.602;2022-12-13T06:21:32;63067.38;;;-1.02;91.02
41636;BME280;27623;51.966;4.602;2022-12-13T06:23:58;63029.50;;;-1.08;90.35
41636;BME280;27623;51.966;4.602;2022-12-13T06:26:24;63063.63;;;-1.06;90.75
41636;BME280;27623;51.966;4.602;2022-12-13T06:28:50;63073.78;;;-1.04;90.67
41636;BME280;27623;51.966;4.602;2022-12-13T06:31:15;63079.25;;;-1.17;90.74
41636;BME280;27623;51.966;4.602;2022-12-13T06:33:41;63055.25;;;-1.05;90.69
41636;BME280;27623;51.966;4.602;2022-12-13T06:36:07;63062.09;;;-1.19;91.28
41636;BME280;27623;51.966;4.602;2022-12-13T06:38:33;63075.47;;;-1.21;91.90
41636;BME280;27623;51.966;4.602;2022-12-13T06:41:12;63086.66;;;-1.06;91.82
41636;BME280;27623;51.966;4.602;2022-12-13T06:43:40;63036.91;;;-1.22;92.02
41636;BME280;27623;51.966;4.602;2022-12-13T06:46:07;63062.97;;;-1.21;92.21
41636;BME280;27623;51.966;4.602;2022-12-13T06:48:33;63055.69;;;-1.18;91.48
41636;BME280;27623;51.966;4.602;2022-12-13T06:51:00;63056.28;;;-1.11;92.06
41636;BME280;27623;51.966;4.602;2022-12-13T06:53:25;63069.16;;;-1.06;92.42
41636;BME280;27623;51.966;4.602;2022-12-13T06:55:51;63083.66;;;-0.99;91.61
41636;BME280;27623;51.966;4.602;2022-12-13T06:58:17;63048.84;;;-0.96;90.32
41636;BME280;27623;51.966;4.602;2022-12-13T07:00:43;63051.81;;;-1.10;91.18
41636;BME280;27623;51.966;4.602;2022-12-13T07:03:10;63040.78;;;-1.04;91.19
41636;BME280;27623;51.966;4.602;2022-12-13T07:05:39;63056.97;;;-1.15;91.68
41636;BME280;27623;51.966;4.602;2022-12-13T07:08:05;63059.34;;;-1.03;90.96
41636;BME280;27623;51.966;4.602;2022-12-13T07:10:31;63068.28;;;-1.04;90.40
41636;BME280;27623;51.966;4.602;2022-12-13T07:12:56;63088.75;;;-1.11;91.55
41636;BME280;27623;51.966;4.602;2022-12-13T07:15:22;63028.25;;;-1.11;91.63
41636;BME280;27623;51.966;4.602;2022-12-13T07:17:52;63072.69;;;-1.12;92.00
41636;BME280;27623;51.966;4.602;2022-12-13T07:20:18;63045.22;;;-1.38;92.15
41636;BME280;27623;51.966;4.602;2022-12-13T07:22:44;63039.75;;;-1.24;93.48
41636;BME280;27623;51.966;4.602;2022-12-13T07:25:17;63092.53;;;-1.07;91.85
41636;BME280;27623;51.966;4.602;2022-12-13T07:27:43;63022.56;;;-1.07;90.77
41636;BME280;27623;51.966;4.602;2022-12-13T07:30:09;63055.53;;;-1.14;nan
41636;BME280;27623;51.966;4.602;2022-12-13T07:32:36;63043.34;;;-1.23;90.72
41636;BME280;27623;51.966;4.602;2022-12-13T07:35:02;63069.34;;;-1.03;91.40
41636;BME280;27623;51.966;4.602;2022-12-13T07:37:28;63052.44;;;-1.21;91.29
41636;BME280;27623;51.966;4.602;2022-12-13T07:39:53;63021.84;;;-1.36;92.26
41636;BME280;27623;51.966;4.602;2022-12-13T07:42:19;63023.31;;;-1.30;92.18
41636;BME280;27623;51.966;4.602;2022-12-13T07:44:45;63006.53;;;-1.34;91.81
41636;BME280;27623;51.966;4.602;2022-12-13T07:47:10;63065.09;;;-1.26;90.71
41636;BME280;27623;51.966;4.602;2022-12-13T07:49:36;63058.19;;;-1.18;90.61
41636;BME280;27623;51.966;4.602;2022-12-13T07:52:02;63067.69;;;-1.12;89.97
41636;BME280;27623;51.966;4.602;2022-12-13T07:54:30;63050.72;;;-1.11;89.79
41636;BME280;27623;51.966;4.602;2022-12-13T07:56:55;63064.59;;;-1.19;90.94
41636;BME280;27623;51.966;4.602;2022-12-13T07:59:21;63046.75;;;-1.17;90.94
41636;BME280;27623;51.966;4.602;2022-12-13T08:01:47;63062.34;;;-1.10;89.99
41636;BME280;27623;51.966;4.602;2022-12-13T08:04:12;63023.06;;;-1.14;90.44
41636;BME280;27623;51.966;4.602;2022-12-13T08:06:38;63010.06;;;-1.07;90.97
41636;BME280;27623;51.966;4.602;2022-12-13T08:09:05;63051.84;;;-1.03;89.60
41636;BME280;27623;51.966;4.602;2022-12-13T08:11:30;63072.91;;;-1.02;90.05
41636;BME280;27623;51.966;4.602;2022-12-13T08:13:55;63048.91;;;-1.15;89.98
41636;BME280;27623;51.966;4.602;2022-12-13T08:16:21;63056.06;;;-1.13;89.72
41636;BME280;27623;51.966;4.602;2022-12-13T08:18:47;63051.22;;;-1.18;90.96
41636;BME280;27623;51.966;4.602;2022-12-13T08:21:13;63063.63;;;-1.06;90.80
41636;BME280;27623;51.966;4.602;2022-12-13T08:23:39;63084.97;;;-1.14;90.87
41636;BME280;27623;51.966;4.602;2022-12-13T08:26:05;63078.09;;;-0.99;90.83
41636;BME280;27623;51.966;4.602;2022-12-13T08:28:32;63079.19;;;-0.98;91.58
41636;BME280;27623;51.966;4.602;2022-12-13T08:31:10;63066.66;;;-1.06;91.81
41636;BME280;27623;51.966;4.602;2022-12-13T08:33:36;63040.16;;;-1.19;93.38
41636;BME280;27623;51.966;4.602;2022-12-13T08:36:15;63010.78;;;-1.37;94.34
41636;BME280;27623;51.966;4.602;2022-12-13T08:38:42;63018.44;;;-1.09;94.00
41636;BME280;27623;51.966;4.602;2022-12-13T08:41:08;63070.72;;;-1.11;94.32
41636;BME280;27623;51.966;4.602;2022-12-13T08:43:34;63083.03;;;-0.81;93.63
41636;BME280;27623;51.966;4.602;2022-12-13T08:46:00;63064.28;;;-0.84;92.98
41636;BME280;27623;51.966;4.602;2022-12-13T08:48:26;63107.75;;;-0.72;94.05
41636;BME280;27623;51.966;4.602;2022-12-13T08:50:52;63083.41;;;-0.76;94.41
41636;BME280;27623;51.966;4.602;2022-12-13T08:53:18;63141.19;;;-0.66;93.95
41636;BME280;27623;51.966;4.602;2022-12-13T08:55:43;63074.03;;;-0.61;94.12
41636;BME280;27623;51.966;4.602;2022-12-13T08:58:09;63097.75;;;-0.72;93.50
41636;BME280;27623;51.966;4.602;2022-12-13T09:00:35;63105.66;;;-0.59;94.51
41636;BME280;27623;51.966;4.602;2022-12-13T09:03:02;63136.88;;;-0.70;94.70
41636;BME280;27623;51.966;4.602;2022-12-13T09:05:27;63097.78;;;-0.64;95.56
41636;BME280;27623;51.966;4.602;2022-12-13T09:07:54;63145.88;;;-0.57;96.21
41636;BME280;27623;51.966;4.602;2022-12-13T09:10:21;63106.72;;;-0.65;97.33
41636;BME280;27623;51.966;4.602;2022-12-13T09:12:46;63107.28;;;-0.58;96.71
41636;BME280;27623;51.966;4.602;2022-12-13T09:15:12;63105.09;;;-0.67;96.98
41636;BME280;27623;51.966;4.602;2022-12-13T09:17:37;63102.78;;;-0.64;97.62
41636;BME280;27623;51.966;4.602;2022-12-13T09:20:07;63102.59;;;-0.67;97.02
41636;BME280;27623;51.966;4.602;2022-12-13T09:22:34;63145.88;;;-0.57;97.34
41636;BME280;27623;51.966;4.602;2022-12-13T09:25:01;63140.22;;;-0.46;96.89
41636;BME280;27623;51.966;4.602;2022-12-13T09:27:27;63193.06;;;-0.29;96.26
41636;BME280;27623;51.966;4.602;2022-12-13T09:29:52;63140.97;;;-0.43;97.16
41636;BME280;27623;51.966;4.602;2022-12-13T09:32:18;63095.03;;;-0.74;97.75
41636;BME280;27623;51.966;4.602;2022-12-13T09:34:46;63134.28;;;-0.51;99.49
41636;BME280;27623;51.966;4.602;2022-12-13T09:37:11;63127.22;;;-0.39;98.44
41636;BME280;27623;51.966;4.602;2022-12-13T09:39:37;63162.75;;;-0.46;98.95
41636;BME280;27623;51.966;4.602;2022-12-13T09:42:04;63151.22;;;-0.59;98.62
41636;BME280;27623;51.966;4.602;2022-12-13T09:44:35;63107.81;;;-0.57;99.57
41636;BME280;27623;51.966;4.602;2022-12-13T09:47:08;63129.69;;;-0.46;99.38
41636;BME280;27623;51.966;4.602;2022-12-13T09:49:45;63164.19;;;-0.40;99.19
41636;BME280;27623;51.966;4.602;2022-12-13T09:52:14;63133.25;;;-0.12;97.67
41636;BME280;27623;51.966;4.602;2022-12-13T09:54:43;63186.13;;;0.12;96.87
41636;BME280;27623;51.966;4.602;2022-12-13T09:57:22;63212.78;;;0.13;95.34
41636;BME280;27623;51.966;4.602;2022-12-13T09:59:55;63207.16;;;0.31;94.95
41636;BME280;27623;51.966;4.602;2022-12-13T10:02:26;63213.50;;;0.49;95.39
41636;BME280;27623;51.966;4.602;2022-12-13T10:04:56;63223.91;;;0.54;94.22
41636;BME280;27623;51.966;4.602;2022-12-13T10:07:23;63190.72;;;0.40;94.88
41636;BME280;27623;51.966;4.602;2022-12-13T10:09:59;63200.38;;;0.34;94.97
41636;BME280;27623;51.966;4.602;2022-12-13T10:12:27;63212.66;;;0.58;95.31
41636;BME280;27623;51.966;4.602;2022-12-13T10:15:01;63217.56;;;0.44;95.73
41636;BME280;27623;51.966;4.602;2022-12-13T10:17:36;63228.88;;;0.47;95.89
41636;BME280;27623;51.966;4.602;2022-12-13T10:20:04;63198.59;;;0.38;96.27
41636;BME280;27623;51.966;4.602;2022-12-13T10:22:30;63210.34;;;0.67;96.29
41636;BME280;27623;51.966;4.602;2022-12-13T10:25:00;63221.59;;;0.64;96.29
41636;BME280;27623;51.966;4.602;2022-12-13T10:27:38;63249.88;;;0.60;96.31
41636;BME280;27623;51.966;4.602;2022-12-13T10:30:14;63226.88;;;0.41;97.46
41636;BME280;27623;51.966;4.602;2022-12-13T10:35:23;63219.28;;;0.59;97.72
41636;BME280;27623;51.966;4.602;2022-12-13T10:37:50;63212.53;;;0.37;98.43
41636;BME280;27623;51.966;4.602;2022-12-13T10:40:30;63235.69;;;0.51;98.35
41636;BME280;27623;51.966;4.602;2022-12-13T10:45:43;63150.13;;;-0.01;100.00
41636;BME280;27623;51.966;4.602;2022-12-13T10:48:22;63182.19;;;0.13;100.00
41636;BME280;27623;51.966;4.602;2022-12-13T10:51:09;63234.81;;;0.20;100.00
41636;BME280;27623;51.966;4.602;2022-12-13T10:53:39;63217.59;;;0.11;100.00
41636;BME280;27623;51.966;4.602;2022-12-13T10:56:06;63184.38;;;0.22;100.00
41636;BME280;27623;51.966;4.602;2022-12-13T10:58:40;63237.34;;;0.60;99.05
41636;BME280;27623;51.966;4.602;2022-12-13T11:01:20;63280.34;;;1.05;99.03
41636;BME280;27623;51.966;4.602;2022-12-13T11:03:58;63292.44;;;1.26;97.41
41636;BME280;27623;51.966;4.602;2022-12-13T11:06:27;63301.38;;;1.18;97.13
41636;BME280;27623;51.966;4.602;2022-12-13T11:09:00;63317.56;;;1.33;97.09
41636;BME280;27623;51.966;4.602;2022-12-13T11:11:28;63321.38;;;1.44;97.44
41636;BME280;27623;51.966;4.602;2022-12-13T11:13:57;63335.25;;;1.61;96.46
41636;BME280;27623;51.966;4.602;2022-12-13T11:16:33;63347.13;;;1.72;95.17
41636;BME280;27623;51.966;4.602;2022-12-13T11:19:05;63357.38;;;1.82;95.26
41636;BME280;27623;51.966;4.602;2022-12-13T11:21:36;63372.13;;;1.91;93.95
41636;BME280;27623;51.966;4.602;2022-12-13T11:24:06;63359.38;;;1.89;93.93
41636;BME280;27623;51.966;4.602;2022-12-13T11:26:35;63408.34;;;2.25;92.34
41636;BME280;27623;51.966;4.602;2022-12-13T11:29:18;63393.03;;;2.16;92.04
41636;BME280;27623;51.966;4.602;2022-12-13T11:40:23;63463.44;;;2.70;91.04
41636;BME280;27623;51.966;4.602;2022-12-13T11:43:01;63470.88;;;2.96;89.75
41636;BME280;27623;51.966;4.602;2022-12-13T11:45:41;63512.97;;;3.07;86.97
41636;BME280;27623;51.966;4.602;2022-12-13T11:48:20;63536.84;;;3.51;86.99
41636;BME280;27623;51.966;4.602;2022-12-13T11:50:51;63515.97;;;3.55;85.00
41636;BME280;27623;51.966;4.602;2022-12-13T11:58:49;63592.88;;;3.87;83.46
41636;BME280;27623;51.966;4.602;2022-12-13T12:01:31;63622.50;;;4.26;82.07
41636;BME280;27623;51.966;4.602;2022-12-13T12:04:13;63631.16;;;4.34;80.46
41636;BME280;27623;51.966;4.602;2022-12-13T12:06:51;63678.41;;;4.60;79.56
41636;BME280;27623;51.966;4.602;2022-12-13T12:09:19;63693.44;;;4.86;77.58
41636;BME280;27623;51.966;4.602;2022-12-13T12:11:58;63778.09;;;5.25;76.89
41636;BME280;27623;51.966;4.602;2022-12-13T12:14:36;63717.13;;;5.27;75.82
41636;BME280;27623;51.966;4.602;2022-12-13T12:17:03;63716.19;;;5.14;74.43
41636;BME280;27623;51.966;4.602;2022-12-13T12:19:38;63689.97;;;4.80;75.44
41636;BME280;27623;51.966;4.602;2022-12-13T12:34:27;63730.44;;;5.08;74.77
41636;BME280;27623;51.966;4.602;2022-12-13T12:42:56;63598.50;;;4.01;77.09
41636;BME280;27623;51.966;4.602;2022-12-13T12:51:04;63528.28;;;3.24;81.98
41636;BME280;27623;51.966;4.602;2022-12-13T12:53:40;63527.06;;;3.27;82.25
41636;BME280;27623;51.966;4.602;2022-12-13T12:59:16;63505.56;;;2.95;84.51
41636;BME280;27623;51.966;4.602;2022-12-13T13:01:55;63431.66;;;2.83;85.00
41636;BME280;27623;51.966;4.602;2022-12-13T13:04:38;63467.78;;;2.81;85.02
41636;BME280;27623;51.966;4.602;2022-12-13T13:07:25;63447.97;;;2.72;85.51
41636;BME280;27623;51.966;4.602;2022-12-13T13:09:52;63460.19;;;2.74;86.41
41636;BME280;27623;51.966;4.602;2022-12-13T13:12:18;63434.91;;;2.31;86.02
41636;BME280;27623;51.966;4.602;2022-12-13T13:14:44;63394.22;;;2.45;86.83
41636;BME280;27623;51.966;4.602;2022-12-13T13:19:45;63440.31;;;2.36;86.47
41636;BME280;27623;51.966;4.602;2022-12-13T13:22:31;63423.41;;;2.25;87.81
41636;BME280;27623;51.966;4.602;2022-12-13T13:25:12;63424.34;;;2.38;87.79
41636;BME280;27623;51.966;4.602;2022-12-13T13:27:44;63411.81;;;2.45;87.83
41636;BME280;27623;51.966;4.602;2022-12-13T13:30:22;63389.53;;;2.43;86.95
41636;BME280;27623;51.966;4.602;2022-12-13T13:32:52;63390.81;;;2.47;87.56
41636;BME280;27623;51.966;4.602;2022-12-13T13:37:57;63442.88;;;2.44;87.55
41636;BME280;27623;51.966;4.602;2022-12-13T13:40:33;63389.78;;;2.05;88.58
41636;BME280;27623;51.966;4.602;2022-12-13T13:43:06;63402.00;;;2.15;89.16
41636;BME280;27623;51.966;4.602;2022-12-13T13:45:57;63341.09;;;1.93;89.26
41636;BME280;27623;51.966;4.602;2022-12-13T13:48:32;63353.47;;;1.90;89.42
41636;BME280;27623;51.966;4.602;2022-12-13T14:10:45;63393.69;;;1.97;89.80
41636;BME280;27623;51.966;4.602;2022-12-13T14:30:03;63342.75;;;2.01;89.95
41636;BME280;27623;51.966;4.602;2022-12-13T14:32:33;63336.91;;;1.77;89.73
41636;BME280;27623;51.966;4.602;2022-12-13T14:35:01;63409.81;;;1.91;90.82
41636;BME280;27623;51.966;4.602;2022-12-13T14:37:32;63362.59;;;1.85;91.28
41636;BME280;27623;51.966;4.602;2022-12-13T14:39:59;63392.59;;;1.96;91.38
41636;BME280;27623;51.966;4.602;2022-12-13T14:42:30;63359.38;;;1.82;91.53
41636;BME280;27623;51.966;4.602;2022-12-13T14:47:52;63308.13;;;1.48;91.13
41636;BME280;27623;51.966;4.602;2022-12-13T14:50:19;63368.78;;;1.60;91.74
41636;BME280;27623;51.966;4.602;2022-12-13T14:52:47;63325.69;;;1.48;91.67
41636;BME280;27623;51.966;4.602;2022-12-13T14:57:56;63354.41;;;1.56;91.70
41636;BME280;27623;51.966;4.602;2022-12-13T15:02:51;63311.19;;;1.55;91.58
41636;BME280;27623;51.966;4.602;2022-12-13T15:05:27;63316.53;;;1.39;91.77
41636;BME280;27623;51.966;4.602;2022-12-13T15:07:53;63277.06;;;1.35;92.26
41636;BME280;27623;51.966;4.602;2022-12-13T15:12:58;63309.69;;;1.35;92.97
41636;BME280;27623;51.966;4.602;2022-12-13T15:15:35;63288.31;;;1.24;92.28
41636;BME280;27623;51.966;4.602;2022-12-13T15:18:22;63266.75;;;1.11;93.03
41636;BME280;27623;51.966;4.602;2022-12-13T15:20:48;63311.44;;;1.25;93.28